sensor_id;sensor_type;location;lat;lon;timestamp;P1;durP1;ratioP1;P2;durP2;ratioP2
74269;SDS011;62754;48.252;11.654;2022-11-11T00:00:49;7.53;;;4.38;;
74269;SDS011;62754;48.252;11.654;2022-11-11T00:03:16;7.20;;;4.50;;
74269;SDS011;62754;48.252;11.654;2022-11-11T00:05:42;7.50;;;3.90;;
74269;SDS011;62754;48.252;11.654;2022-11-11T00:08:07;8.43;;;4.53;;
74269;SDS011;62754;48.252;11.654;2022-11-11T00:10:33;5.93;;;3.78;;
74269;SDS011;62754;48.252;11.654;2022-11-11T00:13:00;6.55;;;3.78;;
74269;SDS011;62754;48.252;11.654;2022-11-11T00:15:27;8.50;;;4.38;;
74269;SDS011;62754;48.252;11.654;2022-11-11T00:17:53;8.40;;;4.45;;
74269;SDS011;62754;48.252;11.654;2022-11-11T00:20:19;7.20;;;4.07;;
74269;SDS011;62754;48.252;11.654;2022-11-11T00:22:45;8.30;;;3.80;;
74269;SDS011;62754;48.252;11.654;2022-11-11T00:25:12;8.38;;;3.92;;
74269;SDS011;62754;48.252;11.654;2022-11-11T00:27:40;6.55;;;4.32;;
74269;SDS011;62754;48.252;11.654;2022-11-11T00:30:06;7.50;;;3.75;;
74269;SDS011;62754;48.252;11.654;2022-11-11T00:32:33;7.32;;;4.32;;
74269;SDS011;62754;48.252;11.654;2022-11-11T00:34:59;7.03;;;3.83;;
74269;SDS011;62754;48.252;11.654;2022-11-11T00:37:25;7.13;;;3.55;;
74269;SDS011;62754;48.252;11.654;2022-11-11T00:39:50;7.28;;;4.18;;
74269;SDS011;62754;48.252;11.654;2022-11-11T00:42:16;6.72;;;3.47;;
74269;SDS011;62754;48.252;11.654;2022-11-11T00:44:42;8.52;;;3.78;;
74269;SDS011;62754;48.252;11.654;2022-11-11T00:47:08;5.50;;;3.50;;
74269;SDS011;62754;48.252;11.654;2022-11-11T00:49:34;7.72;;;3.33;;
74269;SDS011;62754;48.252;11.654;2022-11-11T00:52:00;6.05;;;3.72;;
74269;SDS011;62754;48.252;11.654;2022-11-11T00:54:25;7.22;;;3.65;;
74269;SDS011;62754;48.252;11.654;2022-11-11T00:56:51;8.65;;;3.97;;
74269;SDS011;62754;48.252;11.654;2022-11-11T00:59:17;5.85;;;3.22;;
74269;SDS011;62754;48.252;11.654;2022-11-11T01:01:43;6.65;;;3.60;;
74269;SDS011;62754;48.252;11.654;2022-11-11T01:04:09;7.68;;;3.63;;
74269;SDS011;62754;48.252;11.654;2022-11-11T01:06:35;6.40;;;3.45;;
74269;SDS011;62754;48.252;11.654;2022-11-11T01:09:04;6.93;;;3.70;;
74269;SDS011;62754;48.252;11.654;2022-11-11T01:11:31;6.57;;;3.88;;
74269;SDS011;62754;48.252;11.654;2022-11-11T01:13:57;7.63;;;3.25;;
74269;SDS011;62754;48.252;11.654;2022-11-11T01:16:25;6.47;;;3.00;;
74269;SDS011;62754;48.252;11.654;2022-11-11T01:18:52;6.28;;;3.20;;
74269;SDS011;62754;48.252;11.654;2022-11-11T01:21:19;6.32;;;3.40;;
74269;SDS011;62754;48.252;11.654;2022-11-11T01:23:47;7.45;;;3.72;;
74269;SDS011;62754;48.252;11.654;2022-11-11T01:26:16;6.07;;;3.83;;
74269;SDS011;62754;48.252;11.654;2022-11-11T01:28:43;6.13;;;3.30;;
74269;SDS011;62754;48.252;11.654;2022-11-11T01:31:10;6.85;;;3.75;;
74269;SDS011;62754;48.252;11.654;2022-11-11T01:33:38;4.63;;;2.85;;
74269;SDS011;62754;48.252;11.654;2022-11-11T01:36:08;7.05;;;3.28;;
74269;SDS011;62754;48.252;11.654;2022-11-11T01:38:39;5.72;;;3.90;;
74269;SDS011;62754;48.252;11.654;2022-11-11T01:41:05;6.25;;;3.38;;
74269;SDS011;62754;48.252;11.654;2022-11-11T01:43:31;5.70;;;3.50;;
74269;SDS011;62754;48.252;11.654;2022-11-11T01:45:58;4.88;;;2.90;;
74269;SDS011;62754;48.252;11.654;2022-11-11T01:48:30;6.85;;;3.50;;
74269;SDS011;62754;48.252;11.654;2022-11-11T01:50:59;5.90;;;3.10;;
74269;SDS011;62754;48.252;11.654;2022-11-11T01:53:27;6.13;;;3.17;;
74269;SDS011;62754;48.252;11.654;2022-11-11T01:55:54;5.32;;;3.28;;
74269;SDS011;62754;48.252;11.654;2022-11-11T01:58:20;5.03;;;2.97;;
74269;SDS011;62754;48.252;11.654;2022-11-11T02:00:46;6.15;;;3.72;;
74269;SDS011;62754;48.252;11.654;2022-11-11T02:03:12;7.47;;;3.22;;
74269;SDS011;62754;48.252;11.654;2022-11-11T02:05:39;5.40;;;3.17;;
74269;SDS011;62754;48.252;11.654;2022-11-11T02:08:06;5.28;;;3.03;;
74269;SDS011;62754;48.252;11.654;2022-11-11T02:10:39;6.15;;;3.05;;
74269;SDS011;62754;48.252;11.654;2022-11-11T02:13:13;4.20;;;2.88;;
74269;SDS011;62754;48.252;11.654;2022-11-11T02:15:39;5.40;;;3.00;;
74269;SDS011;62754;48.252;11.654;2022-11-11T02:18:05;6.57;;;3.17;;
74269;SDS011;62754;48.252;11.654;2022-11-11T02:20:33;4.65;;;3.10;;
74269;SDS011;62754;48.252;11.654;2022-11-11T02:23:05;6.43;;;3.45;;
74269;SDS011;62754;48.252;11.654;2022-11-11T02:25:46;8.40;;;3.95;;
74269;SDS011;62754;48.252;11.654;2022-11-11T02:28:14;5.65;;;3.00;;
74269;SDS011;62754;48.252;11.654;2022-11-11T02:30:42;4.70;;;2.88;;
74269;SDS011;62754;48.252;11.654;2022-11-11T02:33:08;6.22;;;2.92;;
74269;SDS011;62754;48.252;11.654;2022-11-11T02:35:35;5.70;;;2.80;;
74269;SDS011;62754;48.252;11.654;2022-11-11T02:38:03;3.58;;;2.65;;
74269;SDS011;62754;48.252;11.654;2022-11-11T02:40:32;5.55;;;2.97;;
74269;SDS011;62754;48.252;11.654;2022-11-11T02:43:02;5.35;;;3.17;;
74269;SDS011;62754;48.252;11.654;2022-11-11T02:45:28;5.40;;;2.95;;
74269;SDS011;62754;48.252;11.654;2022-11-11T02:47:54;5.55;;;3.30;;
74269;SDS011;62754;48.252;11.654;2022-11-11T02:50:20;5.65;;;3.30;;
74269;SDS011;62754;48.252;11.654;2022-11-11T02:52:46;6.30;;;3.33;;
74269;SDS011;62754;48.252;11.654;2022-11-11T02:55:12;6.00;;;3.03;;
74269;SDS011;62754;48.252;11.654;2022-11-11T02:57:38;4.65;;;2.97;;
74269;SDS011;62754;48.252;11.654;2022-11-11T03:00:04;5.28;;;3.10;;
74269;SDS011;62754;48.252;11.654;2022-11-11T03:02:31;5.72;;;3.60;;
74269;SDS011;62754;48.252;11.654;2022-11-11T03:04:57;4.32;;;2.78;;
74269;SDS011;62754;48.252;11.654;2022-11-11T03:07:23;5.07;;;3.13;;
74269;SDS011;62754;48.252;11.654;2022-11-11T03:09:49;4.85;;;2.97;;
74269;SDS011;62754;48.252;11.654;2022-11-11T03:12:15;6.30;;;3.42;;
74269;SDS011;62754;48.252;11.654;2022-11-11T03:14:42;13.55;;;4.63;;
74269;SDS011;62754;48.252;11.654;2022-11-11T03:17:08;5.68;;;3.63;;
74269;SDS011;62754;48.252;11.654;2022-11-11T03:19:34;6.28;;;3.80;;
74269;SDS011;62754;48.252;11.654;2022-11-11T03:22:00;5.88;;;3.75;;
74269;SDS011;62754;48.252;11.654;2022-11-11T03:24:26;6.45;;;3.70;;
74269;SDS011;62754;48.252;11.654;2022-11-11T03:26:51;5.40;;;3.35;;
74269;SDS011;62754;48.252;11.654;2022-11-11T03:29:17;6.10;;;3.67;;
74269;SDS011;62754;48.252;11.654;2022-11-11T03:31:43;6.05;;;3.60;;
74269;SDS011;62754;48.252;11.654;2022-11-11T03:34:09;5.03;;;3.03;;
74269;SDS011;62754;48.252;11.654;2022-11-11T03:36:34;4.75;;;3.00;;
74269;SDS011;62754;48.252;11.654;2022-11-11T03:39:00;4.60;;;2.95;;
74269;SDS011;62754;48.252;11.654;2022-11-11T03:41:26;3.72;;;2.33;;
74269;SDS011;62754;48.252;11.654;2022-11-11T03:43:52;4.22;;;2.75;;
74269;SDS011;62754;48.252;11.654;2022-11-11T03:46:17;5.60;;;2.75;;
74269;SDS011;62754;48.252;11.654;2022-11-11T03:48:43;5.40;;;3.00;;
74269;SDS011;62754;48.252;11.654;2022-11-11T03:51:09;41.65;;;4.90;;
74269;SDS011;62754;48.252;11.654;2022-11-11T03:53:35;6.22;;;2.95;;
74269;SDS011;62754;48.252;11.654;2022-11-11T03:56:00;4.97;;;3.05;;
74269;SDS011;62754;48.252;11.654;2022-11-11T03:58:26;5.60;;;2.83;;
74269;SDS011;62754;48.252;11.654;2022-11-11T04:00:52;7.50;;;3.53;;
74269;SDS011;62754;48.252;11.654;2022-11-11T04:03:19;6.57;;;3.17;;
74269;SDS011;62754;48.252;11.654;2022-11-11T04:05:45;4.75;;;2.83;;
74269;SDS011;62754;48.252;11.654;2022-11-11T04:08:11;5.05;;;3.03;;
74269;SDS011;62754;48.252;11.654;2022-11-11T04:10:38;8.63;;;4.13;;
74269;SDS011;62754;48.252;11.654;2022-11-11T04:13:03;25.35;;;4.25;;
74269;SDS011;62754;48.252;11.654;2022-11-11T04:15:30;5.20;;;3.30;;
74269;SDS011;62754;48.252;11.654;2022-11-11T04:17:56;14.48;;;3.78;;
74269;SDS011;62754;48.252;11.654;2022-11-11T04:20:22;6.95;;;3.45;;
74269;SDS011;62754;48.252;11.654;2022-11-11T04:22:47;8.63;;;3.30;;
74269;SDS011;62754;48.252;11.654;2022-11-11T04:25:13;15.70;;;4.13;;
74269;SDS011;62754;48.252;11.654;2022-11-11T04:27:39;7.78;;;3.63;;
74269;SDS011;62754;48.252;11.654;2022-11-11T04:30:05;7.57;;;3.70;;
74269;SDS011;62754;48.252;11.654;2022-11-11T04:32:31;6.82;;;3.20;;
74269;SDS011;62754;48.252;11.654;2022-11-11T04:34:58;7.20;;;3.58;;
74269;SDS011;62754;48.252;11.654;2022-11-11T04:37:31;7.35;;;3.42;;
74269;SDS011;62754;48.252;11.654;2022-11-11T04:39:58;7.85;;;4.00;;
74269;SDS011;62754;48.252;11.654;2022-11-11T04:42:24;8.70;;;3.60;;
74269;SDS011;62754;48.252;11.654;2022-11-11T04:44:51;12.60;;;3.72;;
74269;SDS011;62754;48.252;11.654;2022-11-11T04:47:17;8.82;;;5.32;;
74269;SDS011;62754;48.252;11.654;2022-11-11T04:49:43;10.88;;;7.35;;
74269;SDS011;62754;48.252;11.654;2022-11-11T04:52:09;7.97;;;4.80;;
74269;SDS011;62754;48.252;11.654;2022-11-11T04:54:35;10.60;;;5.78;;
74269;SDS011;62754;48.252;11.654;2022-11-11T04:57:00;11.07;;;6.78;;
74269;SDS011;62754;48.252;11.654;2022-11-11T04:59:26;8.10;;;4.65;;
74269;SDS011;62754;48.252;11.654;2022-11-11T05:01:52;7.25;;;3.75;;
74269;SDS011;62754;48.252;11.654;2022-11-11T05:04:18;7.68;;;3.65;;
74269;SDS011;62754;48.252;11.654;2022-11-11T05:06:43;6.78;;;3.60;;
74269;SDS011;62754;48.252;11.654;2022-11-11T05:09:09;5.45;;;3.45;;
74269;SDS011;62754;48.252;11.654;2022-11-11T05:11:35;6.55;;;3.65;;
74269;SDS011;62754;48.252;11.654;2022-11-11T05:14:02;6.45;;;3.67;;
74269;SDS011;62754;48.252;11.654;2022-11-11T05:16:30;6.40;;;4.00;;
74269;SDS011;62754;48.252;11.654;2022-11-11T05:18:58;8.30;;;4.07;;
74269;SDS011;62754;48.252;11.654;2022-11-11T05:21:25;7.68;;;4.07;;
74269;SDS011;62754;48.252;11.654;2022-11-11T05:23:54;8.30;;;3.92;;
74269;SDS011;62754;48.252;11.654;2022-11-11T05:26:19;6.30;;;3.50;;
74269;SDS011;62754;48.252;11.654;2022-11-11T05:28:45;5.68;;;3.60;;
74269;SDS011;62754;48.252;11.654;2022-11-11T05:31:11;5.50;;;3.50;;
74269;SDS011;62754;48.252;11.654;2022-11-11T05:33:37;6.10;;;3.70;;
74269;SDS011;62754;48.252;11.654;2022-11-11T05:36:02;6.78;;;3.75;;
74269;SDS011;62754;48.252;11.654;2022-11-11T05:38:28;6.15;;;3.50;;
74269;SDS011;62754;48.252;11.654;2022-11-11T05:40:54;5.90;;;3.53;;
74269;SDS011;62754;48.252;11.654;2022-11-11T05:43:20;6.65;;;3.33;;
74269;SDS011;62754;48.252;11.654;2022-11-11T05:45:45;4.97;;;3.20;;
74269;SDS011;62754;48.252;11.654;2022-11-11T05:48:11;7.60;;;3.65;;
74269;SDS011;62754;48.252;11.654;2022-11-11T05:50:37;5.88;;;3.38;;
74269;SDS011;62754;48.252;11.654;2022-11-11T05:53:03;7.30;;;3.90;;
74269;SDS011;62754;48.252;11.654;2022-11-11T05:55:29;8.02;;;4.07;;
74269;SDS011;62754;48.252;11.654;2022-11-11T05:57:54;5.63;;;3.40;;
74269;SDS011;62754;48.252;11.654;2022-11-11T06:00:20;4.75;;;3.22;;
74269;SDS011;62754;48.252;11.654;2022-11-11T06:02:46;5.45;;;3.38;;
74269;SDS011;62754;48.252;11.654;2022-11-11T06:05:12;4.95;;;3.20;;
74269;SDS011;62754;48.252;11.654;2022-11-11T06:07:38;5.18;;;3.58;;
74269;SDS011;62754;48.252;11.654;2022-11-11T06:10:04;8.23;;;3.47;;
74269;SDS011;62754;48.252;11.654;2022-11-11T06:12:30;4.95;;;3.15;;
74269;SDS011;62754;48.252;11.654;2022-11-11T06:14:56;7.72;;;4.00;;
74269;SDS011;62754;48.252;11.654;2022-11-11T06:17:22;5.00;;;3.45;;
74269;SDS011;62754;48.252;11.654;2022-11-11T06:19:48;6.22;;;4.18;;
74269;SDS011;62754;48.252;11.654;2022-11-11T06:22:13;6.00;;;3.80;;
74269;SDS011;62754;48.252;11.654;2022-11-11T06:24:39;9.52;;;4.55;;
74269;SDS011;62754;48.252;11.654;2022-11-11T06:27:05;5.53;;;3.90;;
74269;SDS011;62754;48.252;11.654;2022-11-11T06:29:31;5.55;;;3.92;;
74269;SDS011;62754;48.252;11.654;2022-11-11T06:31:57;8.77;;;3.88;;
74269;SDS011;62754;48.252;11.654;2022-11-11T06:34:22;6.10;;;3.63;;
74269;SDS011;62754;48.252;11.654;2022-11-11T06:36:48;7.28;;;3.95;;
74269;SDS011;62754;48.252;11.654;2022-11-11T06:39:14;7.75;;;3.67;;
74269;SDS011;62754;48.252;11.654;2022-11-11T06:41:40;7.30;;;3.60;;
74269;SDS011;62754;48.252;11.654;2022-11-11T06:44:05;5.63;;;3.50;;
74269;SDS011;62754;48.252;11.654;2022-11-11T06:46:31;6.30;;;3.80;;
74269;SDS011;62754;48.252;11.654;2022-11-11T06:48:57;4.80;;;3.50;;
74269;SDS011;62754;48.252;11.654;2022-11-11T06:51:23;5.90;;;3.58;;
74269;SDS011;62754;48.252;11.654;2022-11-11T06:53:48;7.03;;;3.40;;
74269;SDS011;62754;48.252;11.654;2022-11-11T06:56:14;5.65;;;3.33;;
74269;SDS011;62754;48.252;11.654;2022-11-11T06:58:40;8.05;;;3.60;;
74269;SDS011;62754;48.252;11.654;2022-11-11T07:01:06;5.82;;;3.50;;
74269;SDS011;62754;48.252;11.654;2022-11-11T07:03:33;7.32;;;3.80;;
74269;SDS011;62754;48.252;11.654;2022-11-11T07:05:59;6.18;;;3.55;;
74269;SDS011;62754;48.252;11.654;2022-11-11T07:08:26;4.93;;;3.35;;
74269;SDS011;62754;48.252;11.654;2022-11-11T07:10:52;4.93;;;3.58;;
74269;SDS011;62754;48.252;11.654;2022-11-11T07:13:17;8.73;;;3.75;;
74269;SDS011;62754;48.252;11.654;2022-11-11T07:15:43;7.43;;;3.38;;
74269;SDS011;62754;48.252;11.654;2022-11-11T07:18:10;9.43;;;3.88;;
74269;SDS011;62754;48.252;11.654;2022-11-11T07:20:36;5.38;;;3.60;;
74269;SDS011;62754;48.252;11.654;2022-11-11T07:23:02;6.00;;;4.60;;
74269;SDS011;62754;48.252;11.654;2022-11-11T07:25:29;6.70;;;5.47;;
74269;SDS011;62754;48.252;11.654;2022-11-11T07:27:55;9.25;;;8.30;;
74269;SDS011;62754;48.252;11.654;2022-11-11T07:30:20;5.78;;;4.50;;
74269;SDS011;62754;48.252;11.654;2022-11-11T07:32:47;7.47;;;3.53;;
74269;SDS011;62754;48.252;11.654;2022-11-11T07:35:14;7.75;;;6.82;;
74269;SDS011;62754;48.252;11.654;2022-11-11T07:37:41;7.03;;;4.72;;
74269;SDS011;62754;48.252;11.654;2022-11-11T07:40:07;6.47;;;4.65;;
74269;SDS011;62754;48.252;11.654;2022-11-11T07:42:35;5.82;;;3.40;;
74269;SDS011;62754;48.252;11.654;2022-11-11T07:45:02;5.18;;;3.63;;
74269;SDS011;62754;48.252;11.654;2022-11-11T07:47:29;6.15;;;2.55;;
74269;SDS011;62754;48.252;11.654;2022-11-11T07:49:54;3.83;;;2.53;;
74269;SDS011;62754;48.252;11.654;2022-11-11T07:52:20;5.07;;;3.25;;
74269;SDS011;62754;48.252;11.654;2022-11-11T07:54:46;5.38;;;3.17;;
74269;SDS011;62754;48.252;11.654;2022-11-11T07:57:12;4.00;;;2.75;;
74269;SDS011;62754;48.252;11.654;2022-11-11T07:59:37;3.97;;;2.78;;
74269;SDS011;62754;48.252;11.654;2022-11-11T08:02:03;4.22;;;2.78;;
74269;SDS011;62754;48.252;11.654;2022-11-11T08:04:29;4.68;;;2.83;;
74269;SDS011;62754;48.252;11.654;2022-11-11T08:06:55;4.53;;;3.17;;
74269;SDS011;62754;48.252;11.654;2022-11-11T08:09:20;7.25;;;3.67;;
74269;SDS011;62754;48.252;11.654;2022-11-11T08:11:46;5.93;;;3.70;;
74269;SDS011;62754;48.252;11.654;2022-11-11T08:14:12;6.97;;;4.18;;
74269;SDS011;62754;48.252;11.654;2022-11-11T08:16:38;7.47;;;4.43;;
74269;SDS011;62754;48.252;11.654;2022-11-11T08:19:04;7.32;;;4.03;;
74269;SDS011;62754;48.252;11.654;2022-11-11T08:21:29;8.45;;;3.97;;
74269;SDS011;62754;48.252;11.654;2022-11-11T08:23:55;12.50;;;5.50;;
74269;SDS011;62754;48.252;11.654;2022-11-11T08:26:21;9.43;;;6.78;;
74269;SDS011;62754;48.252;11.654;2022-11-11T08:28:48;12.50;;;5.65;;
74269;SDS011;62754;48.252;11.654;2022-11-11T08:31:15;6.82;;;3.92;;
74269;SDS011;62754;48.252;11.654;2022-11-11T08:33:41;6.63;;;3.95;;
74269;SDS011;62754;48.252;11.654;2022-11-11T08:36:07;7.85;;;3.95;;
74269;SDS011;62754;48.252;11.654;2022-11-11T08:38:33;5.03;;;3.55;;
74269;SDS011;62754;48.252;11.654;2022-11-11T08:41:00;7.07;;;3.70;;
74269;SDS011;62754;48.252;11.654;2022-11-11T08:43:26;6.45;;;3.25;;
74269;SDS011;62754;48.252;11.654;2022-11-11T08:45:52;6.60;;;3.30;;
74269;SDS011;62754;48.252;11.654;2022-11-11T08:48:18;5.55;;;3.45;;
74269;SDS011;62754;48.252;11.654;2022-11-11T08:50:44;8.50;;;3.25;;
74269;SDS011;62754;48.252;11.654;2022-11-11T08:53:10;6.38;;;3.80;;
74269;SDS011;62754;48.252;11.654;2022-11-11T08:55:37;12.27;;;3.40;;
74269;SDS011;62754;48.252;11.654;2022-11-11T08:58:04;13.63;;;4.20;;
74269;SDS011;62754;48.252;11.654;2022-11-11T09:00:31;7.38;;;3.55;;
74269;SDS011;62754;48.252;11.654;2022-11-11T09:03:01;10.20;;;3.65;;
74269;SDS011;62754;48.252;11.654;2022-11-11T09:05:29;6.43;;;3.90;;
74269;SDS011;62754;48.252;11.654;2022-11-11T09:07:54;6.60;;;3.47;;
74269;SDS011;62754;48.252;11.654;2022-11-11T09:10:21;8.02;;;3.35;;
74269;SDS011;62754;48.252;11.654;2022-11-11T09:12:46;5.38;;;3.13;;
74269;SDS011;62754;48.252;11.654;2022-11-11T09:15:12;5.35;;;3.40;;
74269;SDS011;62754;48.252;11.654;2022-11-11T09:17:38;5.18;;;3.15;;
74269;SDS011;62754;48.252;11.654;2022-11-11T09:20:10;7.35;;;3.13;;
74269;SDS011;62754;48.252;11.654;2022-11-11T09:22:42;6.43;;;3.13;;
74269;SDS011;62754;48.252;11.654;2022-11-11T09:25:09;4.75;;;3.10;;
74269;SDS011;62754;48.252;11.654;2022-11-11T09:27:35;5.63;;;3.00;;
74269;SDS011;62754;48.252;11.654;2022-11-11T09:30:01;4.55;;;2.65;;
74269;SDS011;62754;48.252;11.654;2022-11-11T09:32:26;6.13;;;3.60;;
74269;SDS011;62754;48.252;11.654;2022-11-11T09:34:52;5.88;;;2.83;;
74269;SDS011;62754;48.252;11.654;2022-11-11T09:37:18;6.15;;;2.97;;
74269;SDS011;62754;48.252;11.654;2022-11-11T09:39:44;5.65;;;2.65;;
74269;SDS011;62754;48.252;11.654;2022-11-11T09:50:28;6.88;;;3.60;;
74269;SDS011;62754;48.252;11.654;2022-11-11T09:53:06;4.45;;;3.00;;
74269;SDS011;62754;48.252;11.654;2022-11-11T09:55:46;4.38;;;3.00;;
74269;SDS011;62754;48.252;11.654;2022-11-11T10:01:08;5.30;;;3.20;;
74269;SDS011;62754;48.252;11.654;2022-11-11T10:03:40;3.60;;;2.72;;
74269;SDS011;62754;48.252;11.654;2022-11-11T10:08:47;5.88;;;2.65;;
74269;SDS011;62754;48.252;11.654;2022-11-11T10:11:24;3.85;;;2.38;;
74269;SDS011;62754;48.252;11.654;2022-11-11T10:13:59;6.70;;;3.10;;
74269;SDS011;62754;48.252;11.654;2022-11-11T10:19:24;4.47;;;2.80;;
74269;SDS011;62754;48.252;11.654;2022-11-11T10:22:22;3.53;;;2.58;;
74269;SDS011;62754;48.252;11.654;2022-11-11T10:27:33;5.22;;;2.50;;
74269;SDS011;62754;48.252;11.654;2022-11-11T10:30:00;5.60;;;2.45;;
74269;SDS011;62754;48.252;11.654;2022-11-11T10:32:32;5.43;;;2.67;;
74269;SDS011;62754;48.252;11.654;2022-11-11T10:35:06;5.57;;;2.97;;
74269;SDS011;62754;48.252;11.654;2022-11-11T10:37:40;4.95;;;2.55;;
74269;SDS011;62754;48.252;11.654;2022-11-11T10:40:24;4.80;;;3.10;;
74269;SDS011;62754;48.252;11.654;2022-11-11T10:42:53;5.05;;;3.13;;
74269;SDS011;62754;48.252;11.654;2022-11-11T10:48:50;4.20;;;3.05;;
74269;SDS011;62754;48.252;11.654;2022-11-11T10:51:39;4.35;;;2.58;;
74269;SDS011;62754;48.252;11.654;2022-11-11T10:54:18;5.68;;;3.15;;
74269;SDS011;62754;48.252;11.654;2022-11-11T10:59:41;5.05;;;2.83;;
74269;SDS011;62754;48.252;11.654;2022-11-11T11:02:27;3.97;;;2.40;;
74269;SDS011;62754;48.252;11.654;2022-11-11T11:07:58;5.00;;;2.72;;
74269;SDS011;62754;48.252;11.654;2022-11-11T11:13:05;4.07;;;2.55;;
74269;SDS011;62754;48.252;11.654;2022-11-11T11:15:38;5.03;;;2.70;;
74269;SDS011;62754;48.252;11.654;2022-11-11T11:18:08;5.43;;;3.00;;
74269;SDS011;62754;48.252;11.654;2022-11-11T11:20:37;4.50;;;2.90;;
74269;SDS011;62754;48.252;11.654;2022-11-11T11:23:03;4.80;;;2.63;;
74269;SDS011;62754;48.252;11.654;2022-11-11T11:25:30;4.45;;;2.55;;
74269;SDS011;62754;48.252;11.654;2022-11-11T11:28:04;4.00;;;2.70;;
74269;SDS011;62754;48.252;11.654;2022-11-11T11:30:30;4.18;;;2.70;;
74269;SDS011;62754;48.252;11.654;2022-11-11T11:38:05;5.35;;;2.97;;
74269;SDS011;62754;48.252;11.654;2022-11-11T11:45:55;4.57;;;2.70;;
74269;SDS011;62754;48.252;11.654;2022-11-11T11:56:49;6.13;;;2.80;;
74269;SDS011;62754;48.252;11.654;2022-11-11T11:59:38;4.68;;;2.20;;
74269;SDS011;62754;48.252;11.654;2022-11-11T12:02:56;3.65;;;2.38;;
74269;SDS011;62754;48.252;11.654;2022-11-11T12:05:33;3.75;;;2.33;;
74269;SDS011;62754;48.252;11.654;2022-11-11T12:11:14;5.25;;;2.95;;
74269;SDS011;62754;48.252;11.654;2022-11-11T12:38:12;4.75;;;2.88;;
74269;SDS011;62754;48.252;11.654;2022-11-11T12:44:04;3.47;;;2.53;;
74269;SDS011;62754;48.252;11.654;2022-11-11T12:52:44;4.63;;;2.78;;
74269;SDS011;62754;48.252;11.654;2022-11-11T12:55:21;5.65;;;2.75;;
74269;SDS011;62754;48.252;11.654;2022-11-11T12:58:04;7.22;;;3.22;;
74269;SDS011;62754;48.252;11.654;2022-11-11T13:00:46;4.95;;;3.53;;
74269;SDS011;62754;48.252;11.654;2022-11-11T13:03:26;7.45;;;4.28;;
74269;SDS011;62754;48.252;11.654;2022-11-11T13:09:09;5.72;;;3.90;;
74269;SDS011;62754;48.252;11.654;2022-11-11T13:17:29;8.00;;;5.07;;
74269;SDS011;62754;48.252;11.654;2022-11-11T13:19:57;7.72;;;5.22;;
74269;SDS011;62754;48.252;11.654;2022-11-11T13:22:28;6.70;;;4.88;;
74269;SDS011;62754;48.252;11.654;2022-11-11T13:24:55;7.60;;;4.63;;
74269;SDS011;62754;48.252;11.654;2022-11-11T13:33:17;8.75;;;4.70;;
74269;SDS011;62754;48.252;11.654;2022-11-11T13:35:47;6.22;;;4.82;;
74269;SDS011;62754;48.252;11.654;2022-11-11T13:38:36;5.80;;;4.68;;
74269;SDS011;62754;48.252;11.654;2022-11-11T13:41:09;5.55;;;4.20;;
74269;SDS011;62754;48.252;11.654;2022-11-11T13:43:44;5.47;;;4.40;;
74269;SDS011;62754;48.252;11.654;2022-11-11T13:46:27;7.00;;;3.83;;
74269;SDS011;62754;48.252;11.654;2022-11-11T13:48:54;5.40;;;3.72;;
74269;SDS011;62754;48.252;11.654;2022-11-11T13:56:46;5.22;;;3.90;;
74269;SDS011;62754;48.252;11.654;2022-11-11T13:59:17;4.82;;;3.78;;
74269;SDS011;62754;48.252;11.654;2022-11-11T14:02:11;5.18;;;4.03;;
74269;SDS011;62754;48.252;11.654;2022-11-11T14:10:09;5.78;;;3.88;;
74269;SDS011;62754;48.252;11.654;2022-11-11T14:15:46;5.40;;;4.00;;
74269;SDS011;62754;48.252;11.654;2022-11-11T14:20:42;4.72;;;3.50;;
74269;SDS011;62754;48.252;11.654;2022-11-11T14:23:34;5.03;;;3.45;;
74269;SDS011;62754;48.252;11.654;2022-11-11T14:28:33;5.25;;;3.83;;
74269;SDS011;62754;48.252;11.654;2022-11-11T14:36:54;6.53;;;3.97;;
74269;SDS011;62754;48.252;11.654;2022-11-11T14:39:35;7.10;;;4.10;;
74269;SDS011;62754;48.252;11.654;2022-11-11T14:42:02;5.40;;;3.78;;
74269;SDS011;62754;48.252;11.654;2022-11-11T14:52:25;5.53;;;4.43;;
74269;SDS011;62754;48.252;11.654;2022-11-11T14:57:29;4.97;;;3.92;;
74269;SDS011;62754;48.252;11.654;2022-11-11T14:59:58;6.07;;;4.03;;
74269;SDS011;62754;48.252;11.654;2022-11-11T15:02:33;7.30;;;4.45;;
74269;SDS011;62754;48.252;11.654;2022-11-11T15:05:01;6.72;;;4.60;;
74269;SDS011;62754;48.252;11.654;2022-11-11T15:07:39;10.63;;;4.97;;
74269;SDS011;62754;48.252;11.654;2022-11-11T15:10:22;6.68;;;4.80;;
74269;SDS011;62754;48.252;11.654;2022-11-11T15:15:29;8.60;;;4.93;;
74269;SDS011;62754;48.252;11.654;2022-11-11T15:20:48;6.95;;;5.07;;
74269;SDS011;62754;48.252;11.654;2022-11-11T15:23:34;5.93;;;4.93;;
74269;SDS011;62754;48.252;11.654;2022-11-11T15:26:24;7.80;;;5.30;;
74269;SDS011;62754;48.252;11.654;2022-11-11T15:32:08;9.40;;;5.35;;
74269;SDS011;62754;48.252;11.654;2022-11-11T15:37:45;7.07;;;5.78;;
74269;SDS011;62754;48.252;11.654;2022-11-11T15:40:20;10.65;;;6.18;;
74269;SDS011;62754;48.252;11.654;2022-11-11T15:42:47;8.30;;;5.60;;
74269;SDS011;62754;48.252;11.654;2022-11-11T15:45:18;10.20;;;6.22;;
74269;SDS011;62754;48.252;11.654;2022-11-11T15:47:47;7.53;;;5.85;;
74269;SDS011;62754;48.252;11.654;2022-11-11T15:50:17;8.90;;;6.88;;
74269;SDS011;62754;48.252;11.654;2022-11-11T15:52:56;12.55;;;5.50;;
74269;SDS011;62754;48.252;11.654;2022-11-11T15:57:51;10.75;;;7.00;;
74269;SDS011;62754;48.252;11.654;2022-11-11T16:00:25;9.65;;;6.47;;
74269;SDS011;62754;48.252;11.654;2022-11-11T16:02:52;13.07;;;7.47;;
74269;SDS011;62754;48.252;11.654;2022-11-11T16:07:48;13.80;;;7.95;;
74269;SDS011;62754;48.252;11.654;2022-11-11T16:10:20;11.48;;;7.47;;
74269;SDS011;62754;48.252;11.654;2022-11-11T16:12:55;12.60;;;8.00;;
74269;SDS011;62754;48.252;11.654;2022-11-11T16:15:37;14.13;;;7.50;;
74269;SDS011;62754;48.252;11.654;2022-11-11T16:18:06;12.38;;;7.43;;
74269;SDS011;62754;48.252;11.654;2022-11-11T16:23:26;11.15;;;6.97;;
74269;SDS011;62754;48.252;11.654;2022-11-11T16:25:52;10.43;;;6.90;;
74269;SDS011;62754;48.252;11.654;2022-11-11T16:30:45;10.20;;;6.60;;
74269;SDS011;62754;48.252;11.654;2022-11-11T16:33:32;12.95;;;6.90;;
74269;SDS011;62754;48.252;11.654;2022-11-11T16:36:11;11.52;;;7.65;;
74269;SDS011;62754;48.252;11.654;2022-11-11T16:38:37;11.55;;;7.50;;
74269;SDS011;62754;48.252;11.654;2022-11-11T16:41:03;14.52;;;8.15;;
74269;SDS011;62754;48.252;11.654;2022-11-11T16:43:46;13.23;;;7.70;;
74269;SDS011;62754;48.252;11.654;2022-11-11T16:46:13;11.68;;;7.80;;
74269;SDS011;62754;48.252;11.654;2022-11-11T16:48:40;12.15;;;7.47;;
74269;SDS011;62754;48.252;11.654;2022-11-11T16:51:16;12.82;;;7.18;;
74269;SDS011;62754;48.252;11.654;2022-11-11T16:53:51;11.07;;;7.30;;
74269;SDS011;62754;48.252;11.654;2022-11-11T16:56:52;12.10;;;7.55;;
74269;SDS011;62754;48.252;11.654;2022-11-11T16:59:31;12.13;;;7.85;;
74269;SDS011;62754;48.252;11.654;2022-11-11T17:01:57;13.32;;;8.75;;
74269;SDS011;62754;48.252;11.654;2022-11-11T17:04:24;12.50;;;8.90;;
74269;SDS011;62754;48.252;11.654;2022-11-11T17:06:51;12.38;;;8.38;;
74269;SDS011;62754;48.252;11.654;2022-11-11T17:09:28;14.82;;;10.10;;
74269;SDS011;62754;48.252;11.654;2022-11-11T17:11:55;13.60;;;9.05;;
74269;SDS011;62754;48.252;11.654;2022-11-11T17:14:21;15.25;;;9.18;;
74269;SDS011;62754;48.252;11.654;2022-11-11T17:16:47;14.73;;;10.02;;
74269;SDS011;62754;48.252;11.654;2022-11-11T17:19:13;18.55;;;10.55;;
74269;SDS011;62754;48.252;11.654;2022-11-11T17:21:39;20.77;;;13.20;;